createdAt,value
2018-10-17T00:00:22.428Z,11.67
2018-10-17T00:02:50.660Z,10.80
2018-10-17T00:05:18.847Z,11.77
2018-10-17T00:07:47.191Z,12.67
2018-10-17T00:10:15.968Z,12.10
2018-10-17T00:12:44.151Z,11.70
2018-10-17T00:15:12.345Z,12.07
2018-10-17T00:17:40.629Z,11.37
2018-10-17T00:20:10.059Z,10.93
2018-10-17T00:22:38.252Z,11.07
2018-10-17T00:25:06.903Z,11.57
2018-10-17T00:27:35.035Z,11.93
2018-10-17T00:30:03.408Z,11.60
2018-10-17T00:32:31.699Z,11.53
2018-10-17T00:35:00.044Z,11.73
2018-10-17T00:37:28.613Z,13.00
2018-10-17T00:39:56.803Z,11.90
2018-10-17T00:42:25.004Z,12.30
2018-10-17T00:44:53.208Z,11.93
2018-10-17T00:47:21.424Z,12.30
2018-10-17T00:49:49.636Z,12.50
2018-10-17T00:52:17.916Z,12.63
2018-10-17T00:54:46.128Z,13.93
2018-10-17T00:57:14.361Z,12.60
2018-10-17T00:59:42.540Z,12.50
2018-10-17T01:02:10.787Z,13.07
2018-10-17T01:04:38.987Z,12.63
2018-10-17T01:07:07.279Z,12.40
2018-10-17T01:09:35.452Z,12.87
2018-10-17T01:12:03.661Z,12.73
2018-10-17T01:14:31.847Z,13.23
2018-10-17T01:17:00.105Z,12.93
2018-10-17T01:19:28.319Z,12.60
2018-10-17T01:21:56.560Z,12.50
2018-10-17T01:24:24.773Z,13.20
2018-10-17T01:26:52.968Z,13.70
2018-10-17T01:29:21.183Z,13.93
2018-10-17T01:31:49.393Z,14.30
2018-10-17T01:34:17.588Z,13.13
2018-10-17T01:36:45.792Z,13.97
2018-10-17T01:39:13.987Z,13.70
2018-10-17T01:41:42.218Z,15.20
2018-10-17T01:44:10.399Z,15.33
2018-10-17T01:46:38.659Z,14.10
2018-10-17T01:49:06.916Z,13.90
2018-10-17T01:51:35.115Z,13.63
2018-10-17T01:54:03.311Z,13.17
2018-10-17T01:56:31.516Z,13.07
2018-10-17T01:58:59.727Z,14.00
2018-10-17T02:01:27.927Z,14.37
2018-10-17T02:03:56.145Z,13.97
2018-10-17T02:06:24.372Z,12.67
2018-10-17T02:08:52.564Z,12.37
2018-10-17T02:11:20.789Z,12.73
2018-10-17T02:13:48.976Z,13.30
2018-10-17T02:16:17.188Z,13.37
2018-10-17T02:18:45.424Z,11.93
2018-10-17T02:21:13.635Z,13.00
2018-10-17T02:23:41.957Z,12.30
2018-10-17T02:26:10.444Z,12.43
2018-10-17T02:28:38.660Z,12.00
2018-10-17T02:31:06.874Z,13.10
2018-10-17T02:33:35.051Z,12.43
2018-10-17T02:36:03.371Z,13.13
2018-10-17T02:38:31.556Z,12.97
2018-10-17T02:40:59.777Z,12.93
2018-10-17T02:43:27.977Z,13.83
2018-10-17T02:45:56.176Z,14.50
2018-10-17T02:48:24.736Z,13.33
2018-10-17T02:50:52.947Z,14.00
2018-10-17T02:53:21.191Z,12.63
2018-10-17T02:55:49.481Z,13.57
2018-10-17T02:58:17.673Z,14.70
2018-10-17T03:00:46.097Z,15.43
2018-10-17T03:03:14.291Z,14.87
2018-10-17T03:05:42.500Z,13.87
2018-10-17T03:08:11.037Z,14.47
2018-10-17T03:10:39.281Z,14.50
2018-10-17T03:13:07.555Z,14.73
2018-10-17T03:15:35.744Z,13.80
2018-10-17T03:18:03.947Z,14.63
2018-10-17T03:20:32.167Z,14.93
2018-10-17T03:23:00.417Z,14.73
2018-10-17T03:25:28.593Z,13.97
2018-10-17T03:27:56.846Z,14.53
2018-10-17T03:30:25.082Z,14.00
2018-10-17T03:32:53.321Z,14.27
2018-10-17T03:35:21.795Z,14.13
2018-10-17T03:37:50.008Z,14.23
2018-10-17T03:40:18.244Z,13.77
2018-10-17T03:42:46.453Z,15.07
2018-10-17T03:45:14.661Z,13.93
2018-10-17T03:47:43.250Z,13.40
2018-10-17T03:50:11.444Z,13.10
2018-10-17T03:52:39.645Z,14.67
2018-10-17T03:55:07.974Z,13.20
2018-10-17T03:57:36.084Z,13.60
2018-10-17T04:00:04.334Z,13.97
2018-10-17T04:02:32.717Z,13.77
2018-10-17T04:05:02.121Z,14.10
2018-10-17T04:07:30.366Z,13.77
2018-10-17T04:09:58.614Z,13.67
2018-10-17T04:12:26.844Z,13.90
2018-10-17T04:14:55.055Z,13.93
2018-10-17T04:17:23.288Z,14.40
2018-10-17T04:19:51.533Z,13.27
2018-10-17T04:22:20.018Z,13.40
2018-10-17T04:24:48.173Z,12.97
2018-10-17T04:27:16.604Z,13.37
2018-10-17T04:29:44.896Z,14.93
2018-10-17T04:32:13.119Z,13.80
2018-10-17T04:34:41.719Z,13.20
2018-10-17T04:37:09.999Z,14.00
2018-10-17T04:39:38.129Z,14.83
2018-10-17T04:42:06.868Z,13.67
2018-10-17T04:44:35.077Z,13.20
2018-10-17T04:47:03.383Z,13.63
2018-10-17T04:49:31.708Z,13.17
2018-10-17T04:51:59.995Z,13.20
2018-10-17T04:54:28.485Z,15.67
2018-10-17T04:56:56.758Z,14.90
2018-10-17T04:59:25.025Z,14.63
2018-10-17T05:01:53.398Z,13.17
2018-10-17T05:04:21.666Z,14.13
2018-10-17T05:06:49.934Z,14.30
2018-10-17T05:09:18.523Z,16.20
2018-10-17T05:11:46.744Z,15.97
2018-10-17T05:14:14.966Z,15.53
2018-10-17T05:16:43.337Z,14.30
2018-10-17T05:19:11.604Z,14.33
2018-10-17T05:21:39.768Z,16.13
2018-10-17T05:24:08.140Z,17.27
2018-10-17T05:26:36.363Z,16.77
2018-10-17T05:29:04.891Z,16.47
2018-10-17T05:31:33.064Z,16.27
2018-10-17T05:34:01.315Z,17.80
2018-10-17T05:36:29.789Z,15.77
2018-10-17T05:38:58.030Z,14.73
2018-10-17T05:41:26.490Z,15.80
2018-10-17T05:43:54.873Z,15.73
2018-10-17T05:46:23.069Z,15.50
2018-10-17T05:48:51.456Z,14.40
2018-10-17T05:51:19.644Z,17.10
2018-10-17T05:53:47.879Z,16.60
2018-10-17T05:56:16.356Z,14.33
2018-10-17T05:58:44.559Z,15.63
2018-10-17T06:01:13.174Z,15.87
2018-10-17T06:03:41.281Z,19.73
2018-10-17T06:06:09.763Z,17.83
2018-10-17T06:08:37.971Z,16.13
2018-10-17T06:11:06.249Z,16.60
2018-10-17T06:13:34.754Z,16.67
2018-10-17T06:16:03.227Z,16.97
2018-10-17T06:18:31.432Z,17.40
2018-10-17T06:20:59.939Z,16.27
2018-10-17T06:23:28.198Z,15.70
2018-10-17T06:25:56.425Z,16.37
2018-10-17T06:28:24.949Z,16.03
2018-10-17T06:30:53.159Z,16.73
2018-10-17T06:33:21.412Z,14.93
2018-10-17T06:35:50.090Z,17.00
2018-10-17T06:38:18.311Z,16.70
2018-10-17T06:40:46.847Z,17.97
2018-10-17T06:43:15.608Z,16.67
2018-10-17T06:45:43.748Z,17.97
2018-10-17T06:48:12.228Z,18.67
2018-10-17T06:50:40.571Z,16.60
2018-10-17T06:53:08.845Z,16.00
2018-10-17T06:55:37.128Z,16.73
2018-10-17T06:58:05.376Z,15.87
2018-10-17T07:00:33.753Z,16.80
2018-10-17T07:03:01.968Z,15.27
2018-10-17T07:05:30.165Z,15.33
2018-10-17T07:07:58.528Z,15.80
2018-10-17T07:10:26.749Z,16.93
2018-10-17T07:12:55.298Z,16.90
2018-10-17T07:15:23.537Z,16.13
2018-10-17T07:17:51.705Z,15.83
2018-10-17T07:20:20.120Z,15.77
2018-10-17T07:22:48.574Z,15.80
2018-10-17T07:25:16.917Z,17.17
2018-10-17T07:27:45.256Z,16.07
2018-10-17T07:30:13.616Z,17.30
2018-10-17T07:32:42.144Z,16.87
2018-10-17T07:35:10.901Z,17.37
2018-10-17T07:37:39.100Z,18.63
2018-10-17T07:40:07.524Z,17.27
2018-10-17T07:42:36.056Z,18.70
2018-10-17T07:45:06.311Z,18.43
2018-10-17T07:47:34.777Z,18.83
2018-10-17T07:50:03.125Z,18.00
2018-10-17T07:52:31.360Z,18.67
2018-10-17T07:54:59.945Z,17.10
2018-10-17T07:57:28.147Z,17.27
2018-10-17T07:59:56.619Z,17.27
2018-10-17T08:02:24.855Z,16.80
2018-10-17T08:04:53.112Z,17.07
2018-10-17T08:07:21.628Z,17.33
2018-10-17T08:09:49.844Z,16.23
2018-10-17T08:12:18.138Z,16.30
2018-10-17T08:14:46.504Z,16.57
2018-10-17T08:17:14.836Z,16.93
2018-10-17T08:19:43.228Z,16.33
2018-10-17T08:22:11.457Z,17.37
2018-10-17T08:24:39.681Z,16.93
2018-10-17T08:27:08.391Z,16.83
2018-10-17T08:29:36.629Z,17.20
2018-10-17T08:32:05.540Z,17.37
2018-10-17T08:34:33.941Z,18.70
2018-10-17T08:37:02.442Z,17.87
2018-10-17T08:39:30.657Z,17.43
2018-10-17T08:41:59.336Z,16.53
2018-10-17T08:44:27.637Z,17.67
2018-10-17T08:46:56.134Z,16.97
2018-10-17T08:49:24.508Z,16.37
2018-10-17T08:51:52.920Z,18.10
2018-10-17T08:54:21.223Z,18.13
2018-10-17T08:56:49.332Z,16.90
2018-10-17T08:59:17.884Z,15.87
2018-10-17T09:01:46.088Z,16.77
2018-10-17T09:04:14.300Z,16.93
2018-10-17T09:06:42.712Z,16.57
2018-10-17T09:09:12.440Z,15.23
2018-10-17T09:11:41.482Z,16.67
2018-10-17T09:14:10.355Z,15.43
2018-10-17T09:16:39.188Z,16.17
2018-10-17T09:19:07.832Z,15.27
2018-10-17T09:21:36.375Z,15.00
2018-10-17T09:24:04.811Z,14.77
2018-10-17T09:26:33.064Z,15.63
2018-10-17T09:29:01.270Z,14.53
2018-10-17T09:31:29.510Z,13.40
2018-10-17T09:33:57.837Z,14.83
2018-10-17T09:36:25.979Z,15.30
2018-10-17T09:38:54.623Z,15.43
2018-10-17T09:41:22.860Z,15.67
2018-10-17T09:43:51.084Z,14.70
2018-10-17T09:46:19.292Z,15.83
2018-10-17T09:48:47.656Z,14.33
2018-10-17T09:51:16.588Z,15.20
2018-10-17T09:53:44.804Z,14.60
2018-10-17T09:56:13.025Z,14.57
2018-10-17T09:58:41.252Z,15.23
2018-10-17T10:01:16.080Z,13.50
2018-10-17T10:03:44.372Z,14.70
2018-10-17T10:06:12.740Z,14.33
2018-10-17T10:08:40.807Z,14.07
2018-10-17T10:11:09.201Z,13.67
2018-10-17T10:13:37.402Z,13.23
2018-10-17T10:16:05.954Z,12.30
2018-10-17T10:18:34.124Z,13.13
2018-10-17T10:21:02.344Z,13.80
2018-10-17T10:23:30.558Z,11.83
2018-10-17T10:25:58.774Z,11.97
2018-10-17T10:28:27.150Z,12.57
2018-10-17T10:30:55.292Z,12.50
2018-10-17T10:33:23.503Z,11.67
2018-10-17T10:35:51.825Z,11.03
2018-10-17T10:38:20.072Z,11.17
2018-10-17T10:40:48.406Z,10.20
2018-10-17T10:43:16.591Z,9.50
2018-10-17T10:45:44.848Z,9.43
2018-10-17T10:48:13.149Z,10.03
2018-10-17T10:50:41.480Z,9.43
2018-10-17T10:53:09.769Z,9.60
2018-10-17T10:55:38.588Z,9.53
2018-10-17T10:58:09.860Z,9.43
2018-10-17T11:00:38.100Z,10.70
2018-10-17T11:03:06.388Z,10.70
2018-10-17T11:05:34.760Z,10.30
2018-10-17T11:08:02.867Z,9.70
2018-10-17T11:10:31.144Z,9.33
2018-10-17T11:12:59.552Z,9.83
2018-10-17T11:15:27.767Z,9.30
2018-10-17T11:17:55.980Z,9.40
2018-10-17T11:20:24.248Z,9.10
2018-10-17T11:22:52.579Z,8.80
2018-10-17T11:25:20.724Z,9.60
2018-10-17T11:27:48.939Z,9.43
2018-10-17T11:30:17.152Z,8.90
2018-10-17T11:32:45.424Z,8.97
2018-10-17T11:35:13.739Z,9.07
2018-10-17T11:37:41.902Z,9.00
2018-10-17T11:40:10.315Z,10.37
2018-10-17T11:42:38.493Z,9.60
2018-10-17T11:45:06.818Z,10.17
2018-10-17T11:47:35.474Z,10.23
2018-10-17T11:50:04.417Z,9.10
2018-10-17T11:52:32.698Z,9.10
2018-10-17T11:55:00.905Z,9.50
2018-10-17T11:57:29.215Z,10.53
2018-10-17T11:59:57.496Z,9.80
2018-10-17T12:02:25.692Z,9.50
2018-10-17T12:04:54.089Z,9.03
2018-10-17T12:07:22.171Z,9.50
2018-10-17T12:09:50.395Z,9.67
2018-10-17T12:12:18.686Z,9.07
2018-10-17T12:14:46.811Z,8.90
2018-10-17T12:17:15.300Z,9.67
2018-10-17T12:19:43.526Z,9.23
2018-10-17T12:22:11.732Z,9.37
2018-10-17T12:24:40.016Z,8.90
2018-10-17T12:27:08.303Z,8.33
2018-10-17T12:29:36.658Z,7.90
2018-10-17T12:32:05.369Z,8.10
2018-10-17T12:34:33.580Z,8.17
2018-10-17T12:37:01.800Z,7.33
2018-10-17T12:39:30.125Z,7.83
2018-10-17T12:41:58.237Z,7.17
2018-10-17T12:44:26.906Z,7.17
2018-10-17T12:46:55.284Z,7.20
2018-10-17T12:49:23.586Z,7.30
2018-10-17T12:51:51.898Z,6.90
2018-10-17T12:54:20.124Z,6.90
2018-10-17T12:56:48.355Z,5.90
2018-10-17T12:59:16.673Z,6.20
2018-10-17T13:01:44.807Z,5.83
2018-10-17T13:04:13.016Z,5.93
2018-10-17T13:06:41.502Z,6.67
2018-10-17T13:09:10.971Z,6.37
2018-10-17T13:11:39.383Z,6.97
2018-10-17T13:14:07.616Z,6.03
2018-10-17T13:16:35.832Z,6.20
2018-10-17T13:19:04.425Z,6.83
2018-10-17T13:21:32.600Z,5.93
2018-10-17T13:24:01.008Z,5.33
2018-10-17T13:26:29.347Z,5.07
2018-10-17T13:28:57.603Z,5.33
2018-10-17T13:31:25.930Z,5.47
2018-10-17T13:33:54.133Z,6.00
2018-10-17T13:36:22.365Z,6.07
2018-10-17T13:38:50.589Z,5.60
2018-10-17T13:41:18.947Z,5.47
2018-10-17T13:43:47.129Z,5.40
2018-10-17T13:46:15.322Z,5.80
2018-10-17T13:48:43.745Z,5.10
2018-10-17T13:51:12.253Z,5.20
2018-10-17T13:53:40.463Z,5.43
2018-10-17T13:56:08.660Z,5.83
2018-10-17T13:58:36.873Z,5.80
2018-10-17T14:01:05.421Z,5.30
2018-10-17T14:03:33.588Z,5.20
2018-10-17T14:06:01.862Z,6.10
2018-10-17T14:08:30.311Z,6.07
2018-10-17T14:10:58.519Z,5.40
2018-10-17T14:13:26.839Z,6.07
2018-10-17T14:15:55.080Z,5.70
2018-10-17T14:18:23.312Z,5.40
2018-10-17T14:20:51.587Z,4.90
2018-10-17T14:23:19.786Z,5.17
2018-10-17T14:25:47.985Z,5.37
2018-10-17T14:28:16.215Z,5.00
2018-10-17T14:30:44.405Z,4.57
2018-10-17T14:33:12.643Z,5.17
2018-10-17T14:35:40.843Z,5.40
2018-10-17T14:38:09.061Z,4.90
2018-10-17T14:40:37.381Z,4.77
2018-10-17T14:43:05.659Z,5.50
2018-10-17T14:45:33.865Z,5.70
2018-10-17T14:48:02.112Z,5.53
2018-10-17T14:50:30.276Z,6.10
2018-10-17T14:52:58.553Z,5.60
2018-10-17T14:55:26.744Z,5.67
2018-10-17T14:57:54.939Z,5.70
2018-10-17T15:00:23.159Z,5.80
2018-10-17T15:02:51.467Z,5.83
2018-10-17T15:05:19.760Z,6.27
2018-10-17T15:07:47.892Z,5.60
2018-10-17T15:10:16.223Z,6.10
2018-10-17T15:12:44.386Z,5.77
2018-10-17T15:15:13.384Z,5.80
2018-10-17T15:17:41.570Z,5.63
2018-10-17T15:20:10.284Z,6.37
2018-10-17T15:22:38.644Z,6.03
2018-10-17T15:25:07.439Z,6.30
2018-10-17T15:27:35.635Z,6.23
2018-10-17T15:30:03.957Z,6.43
2018-10-17T15:32:32.108Z,6.30
2018-10-17T15:35:00.295Z,6.50
2018-10-17T15:37:28.556Z,6.37
2018-10-17T15:39:56.764Z,7.70
2018-10-17T15:42:25.006Z,5.90
2018-10-17T15:44:53.211Z,6.10
2018-10-17T15:47:21.384Z,6.83
2018-10-17T15:49:49.608Z,6.50
2018-10-17T15:52:17.852Z,6.53
2018-10-17T15:54:46.051Z,6.70
2018-10-17T15:57:14.289Z,6.27
2018-10-17T15:59:42.564Z,6.83
2018-10-17T16:02:10.805Z,6.67
2018-10-17T16:04:39.151Z,6.60
2018-10-17T16:07:07.367Z,6.67
2018-10-17T16:09:35.581Z,7.27
2018-10-17T16:12:03.834Z,6.80
2018-10-17T16:14:31.997Z,6.73
2018-10-17T16:17:00.387Z,6.80
2018-10-17T16:19:28.968Z,6.83
2018-10-17T16:21:57.164Z,7.73
2018-10-17T16:24:25.401Z,6.37
2018-10-17T16:26:53.621Z,7.20
2018-10-17T16:29:21.876Z,6.83
2018-10-17T16:31:50.145Z,7.33
2018-10-17T16:34:18.459Z,7.00
2018-10-17T16:36:46.688Z,7.10
2018-10-17T16:39:14.960Z,7.53
2018-10-17T16:41:43.373Z,6.83
2018-10-17T16:44:11.753Z,7.40
2018-10-17T16:46:39.936Z,6.77
2018-10-17T16:49:08.181Z,6.90
2018-10-17T16:51:36.436Z,6.20
2018-10-17T16:54:04.767Z,7.60
2018-10-17T16:56:33.201Z,7.80
2018-10-17T16:59:01.399Z,6.70
2018-10-17T17:01:29.754Z,6.97
2018-10-17T17:03:57.967Z,7.47
2018-10-17T17:06:26.501Z,7.20
2018-10-17T17:08:54.757Z,7.50
2018-10-17T17:11:22.940Z,7.73
2018-10-17T17:13:51.209Z,7.50
2018-10-17T17:16:19.551Z,7.17
2018-10-17T17:18:47.733Z,7.30
2018-10-17T17:21:16.277Z,8.00
2018-10-17T17:23:44.384Z,7.87
2018-10-17T17:26:12.616Z,7.90
2018-10-17T17:28:40.820Z,7.60
2018-10-17T17:31:09.048Z,6.93
2018-10-17T17:33:37.264Z,7.83
2018-10-17T17:36:05.769Z,8.20
2018-10-17T17:38:33.952Z,8.67
2018-10-17T17:41:02.188Z,7.77
2018-10-17T17:43:30.666Z,8.40
2018-10-17T17:45:58.921Z,8.00
2018-10-17T17:48:27.140Z,8.33
2018-10-17T17:50:55.340Z,9.40
2018-10-17T17:53:23.670Z,8.67
2018-10-17T17:55:51.895Z,8.93
2018-10-17T17:58:20.205Z,9.60
2018-10-17T18:00:48.608Z,9.83
2018-10-17T18:03:16.918Z,9.90
2018-10-17T18:05:45.300Z,10.63
2018-10-17T18:08:13.544Z,10.13
2018-10-17T18:10:41.764Z,11.23
2018-10-17T18:13:10.020Z,10.27
2018-10-17T18:15:38.319Z,11.27
2018-10-17T18:18:06.787Z,10.27
2018-10-17T18:20:35.023Z,10.83
2018-10-17T18:23:03.237Z,9.90
2018-10-17T18:25:31.478Z,10.80
2018-10-17T18:27:59.834Z,9.77
2018-10-17T18:30:28.036Z,10.50
2018-10-17T18:32:56.293Z,10.27
2018-10-17T18:35:24.508Z,10.67
2018-10-17T18:37:52.704Z,12.20
2018-10-17T18:40:21.088Z,10.17
2018-10-17T18:42:49.485Z,10.50
2018-10-17T18:45:17.705Z,10.87
2018-10-17T18:47:45.991Z,11.77
2018-10-17T18:50:14.185Z,11.57
2018-10-17T18:52:42.385Z,12.83
2018-10-17T18:55:10.636Z,12.40
2018-10-17T18:57:38.864Z,11.73
2018-10-17T19:00:08.713Z,11.63
2018-10-17T19:02:36.940Z,13.10
2018-10-17T19:05:05.224Z,13.00
2018-10-17T19:07:33.448Z,12.83
2018-10-17T19:10:01.807Z,12.93
2018-10-17T19:12:30.000Z,13.03
2018-10-17T19:14:58.287Z,13.17
2018-10-17T19:17:26.469Z,14.00
2018-10-17T19:19:54.751Z,14.07
2018-10-17T19:22:22.960Z,13.27
2018-10-17T19:24:51.194Z,13.73
2018-10-17T19:27:19.610Z,13.87
2018-10-17T19:29:47.860Z,13.00
2018-10-17T19:32:16.119Z,12.70
2018-10-17T19:34:44.349Z,13.17
2018-10-17T19:37:12.676Z,13.00
2018-10-17T19:39:41.026Z,13.57
2018-10-17T19:42:09.247Z,13.60
2018-10-17T19:44:37.465Z,12.80
2018-10-17T19:47:05.930Z,14.80
2018-10-17T19:49:34.171Z,14.73
2018-10-17T19:52:02.388Z,14.87
2018-10-17T19:54:30.637Z,15.07
2018-10-17T19:56:58.906Z,14.87
2018-10-17T19:59:27.172Z,13.53
2018-10-17T20:01:55.421Z,14.40
2018-10-17T20:04:23.642Z,14.57
2018-10-17T20:06:51.850Z,14.10
2018-10-17T20:09:20.128Z,14.43
2018-10-17T20:11:48.336Z,13.90
2018-10-17T20:14:16.640Z,14.40
2018-10-17T20:16:44.885Z,15.20
2018-10-17T20:19:13.117Z,13.47
2018-10-17T20:21:41.383Z,13.50
2018-10-17T20:24:09.603Z,13.47
2018-10-17T20:26:37.852Z,14.77
2018-10-17T20:29:06.300Z,14.30
2018-10-17T20:31:41.258Z,14.90
2018-10-17T20:34:09.559Z,13.73
2018-10-17T20:36:37.751Z,14.50
2018-10-17T20:39:10.520Z,15.03
2018-10-17T20:41:39.007Z,13.57
2018-10-17T20:44:07.393Z,14.97
2018-10-17T20:46:35.635Z,14.57
2018-10-17T20:49:03.901Z,13.93
2018-10-17T20:51:32.112Z,14.63
2018-10-17T20:54:00.379Z,14.67
2018-10-17T20:56:28.666Z,14.00
2018-10-17T20:58:57.171Z,13.77
2018-10-17T21:01:25.392Z,13.87
2018-10-17T21:03:53.600Z,13.20
2018-10-17T21:06:21.845Z,14.23
2018-10-17T21:08:50.111Z,13.90
2018-10-17T21:11:18.503Z,15.00
2018-10-17T21:13:46.700Z,13.87
2018-10-17T21:16:14.904Z,14.23
2018-10-17T21:18:43.432Z,14.30
2018-10-17T21:21:11.635Z,13.83
2018-10-17T21:23:40.172Z,13.60
2018-10-17T21:26:08.464Z,14.47
2018-10-17T21:28:36.641Z,14.03
2018-10-17T21:31:05.196Z,14.37
2018-10-17T21:33:33.411Z,14.97
2018-10-17T21:36:01.693Z,14.73
2018-10-17T21:38:29.914Z,13.77
2018-10-17T21:40:58.132Z,13.67
2018-10-17T21:43:26.364Z,13.97
2018-10-17T21:45:54.601Z,13.77
2018-10-17T21:48:22.880Z,14.60
2018-10-17T21:50:51.088Z,14.17
2018-10-17T21:53:19.345Z,14.47
2018-10-17T21:55:47.607Z,15.40
2018-10-17T21:58:15.824Z,13.33
2018-10-17T22:00:44.068Z,15.97
2018-10-17T22:03:12.316Z,15.37
2018-10-17T22:05:40.520Z,15.27
2018-10-17T22:08:08.828Z,14.07
2018-10-17T22:10:36.952Z,14.47
2018-10-17T22:13:05.260Z,14.80
2018-10-17T22:15:33.497Z,15.90
2018-10-17T22:18:01.812Z,15.50
2018-10-17T22:20:30.046Z,15.17
2018-10-17T22:22:58.240Z,15.10
2018-10-17T22:25:26.445Z,15.37
2018-10-17T22:27:54.875Z,16.07
2018-10-17T22:30:23.096Z,16.10
2018-10-17T22:32:51.332Z,16.17
2018-10-17T22:35:19.559Z,15.17
2018-10-17T22:37:47.796Z,15.63
2018-10-17T22:40:16.004Z,15.63
2018-10-17T22:42:44.216Z,16.83
2018-10-17T22:45:12.443Z,16.20
2018-10-17T22:47:40.643Z,16.03
2018-10-17T22:50:09.577Z,16.07
2018-10-17T22:52:37.727Z,15.57
2018-10-17T22:55:06.141Z,15.93
2018-10-17T22:57:34.416Z,16.10
2018-10-17T23:00:02.759Z,15.87
2018-10-17T23:02:30.995Z,16.03
2018-10-17T23:04:59.212Z,15.20
2018-10-17T23:07:27.425Z,14.93
2018-10-17T23:09:55.660Z,15.23
2018-10-17T23:12:23.876Z,15.30
2018-10-17T23:14:52.093Z,16.00
2018-10-17T23:17:20.315Z,15.53
2018-10-17T23:19:48.499Z,14.37
2018-10-17T23:22:17.003Z,14.33
2018-10-17T23:24:45.251Z,16.03
2018-10-17T23:27:13.470Z,15.27
2018-10-17T23:29:41.752Z,14.83
2018-10-17T23:32:10.004Z,14.47
2018-10-17T23:34:38.180Z,15.20
2018-10-17T23:37:06.436Z,14.63
2018-10-17T23:39:34.635Z,15.23
2018-10-17T23:42:02.891Z,16.37
2018-10-17T23:44:31.092Z,15.63
2018-10-17T23:46:59.384Z,16.33
2018-10-17T23:49:27.614Z,14.93
2018-10-17T23:51:55.942Z,15.63
2018-10-17T23:54:24.152Z,16.20
2018-10-17T23:56:52.364Z,15.70
2018-10-17T23:59:20.597Z,15.80
